Time;durP1;ratioP1;P1;durP2;ratioP2;P2;SDS_P1;SDS_P2;PMS_P1;PMS_P2;Temp;Humidity;BMP_temperature;BMP_pressure;BME280_temperature;BME280_humidity;BME280_pressure;Samples;Min_cycle;Max_cycle;Signal;HPM_P1;HPM_P2
2023/08/03 00:00:35;;;;;;;;;;;22.30;57.40;;;;;;1555548;75;833;-67
2023/08/03 00:02:37;;;;;;;;;;;22.30;57.30;;;;;;1541486;75;1543;-67
2023/08/03 00:04:38;;;;;;;;;;;22.30;57.40;;;;;;1552633;75;1924;-67
2023/08/03 00:06:40;;;;;;;;;;;22.30;57.40;;;;;;1556432;75;803;-67
2023/08/03 00:08:42;;;;;;;;;;;22.20;57.40;;;;;;1558444;75;722;-67
2023/08/03 00:10:44;;;;;;;;;;;22.30;57.40;;;;;;1547188;75;795;-67
2023/08/03 00:12:46;;;;;;;;;;;22.30;57.50;;;;;;1558238;75;725;-66
2023/08/03 00:14:49;;;;;;;;;;;22.30;57.60;;;;;;1547218;75;1149;-67
2023/08/03 00:16:51;;;;;;;;;;;22.30;57.50;;;;;;1560603;75;1441;-67
2023/08/03 00:18:53;;;;;;;;;;;22.40;57.50;;;;;;1549161;75;628;-67
2023/08/03 00:20:55;;;;;;;;;;;22.30;57.50;;;;;;1551130;75;733;-67
2023/08/03 00:22:57;;;;;;;;;;;22.30;57.60;;;;;;1556995;75;690;-67
2023/08/03 00:24:59;;;;;;;;;;;22.30;57.50;;;;;;1539289;75;1948;-65
2023/08/03 00:27:01;;;;;;;;;;;22.30;57.60;;;;;;1550145;75;797;-66
2023/08/03 00:29:02;;;;;;;;;;;22.30;57.60;;;;;;1571320;75;777;-67
2023/08/03 00:31:04;;;;;;;;;;;22.30;57.60;;;;;;1550659;75;1434;-66
2023/08/03 00:33:06;;;;;;;;;;;22.30;57.60;;;;;;1546236;75;789;-67
2023/08/03 00:35:08;;;;;;;;;;;22.30;57.70;;;;;;1534566;75;1146;-65
2023/08/03 00:37:11;;;;;;;;;;;22.30;57.70;;;;;;1548840;75;874;-68
2023/08/03 00:39:13;;;;;;;;;;;22.30;57.80;;;;;;1565078;75;754;-67
2023/08/03 00:41:15;;;;;;;;;;;22.30;57.80;;;;;;1552900;75;698;-67
2023/08/03 00:43:17;;;;;;;;;;;22.30;57.70;;;;;;1553815;75;801;-66
2023/08/03 00:45:19;;;;;;;;;;;22.30;57.80;;;;;;1555761;75;1959;-67
2023/08/03 00:47:20;;;;;;;;;;;22.30;57.90;;;;;;1543773;75;705;-67
2023/08/03 00:49:27;;;;;;;;;;;22.30;57.90;;;;;;1539193;75;795;-66
2023/08/03 00:51:26;;;;;;;;;;;22.30;57.80;;;;;;1545495;75;1548;-67
2023/08/03 00:53:28;;;;;;;;;;;22.30;57.90;;;;;;1552028;75;777;-67
2023/08/03 00:55:30;;;;;;;;;;;22.30;58.00;;;;;;1527207;76;1263;-67
2023/08/03 00:57:31;;;;;;;;;;;22.20;57.80;;;;;;1554468;75;800;-67
2023/08/03 00:59:33;;;;;;;;;;;22.30;57.90;;;;;;1546408;75;1502;-67
2023/08/03 01:01:35;;;;;;;;;;;22.30;57.90;;;;;;1560944;75;761;-66
2023/08/03 01:03:37;;;;;;;;;;;22.30;57.90;;;;;;1550737;75;791;-66
2023/08/03 01:05:39;;;;;;;;;;;22.20;57.80;;;;;;1542622;75;1994;-67
2023/08/03 01:07:41;;;;;;;;;;;22.20;57.70;;;;;;1553346;75;737;-67
2023/08/03 01:09:43;;;;;;;;;;;22.20;57.60;;;;;;1555728;75;739;-67
2023/08/03 01:11:46;;;;;;;;;;;22.20;57.70;;;;;;1549637;75;757;-67
2023/08/03 01:13:48;;;;;;;;;;;22.30;57.80;;;;;;1552947;75;1897;-67
2023/08/03 01:15:49;;;;;;;;;;;22.30;57.70;;;;;;1548172;75;1136;-67
2023/08/03 01:17:51;;;;;;;;;;;22.30;57.60;;;;;;1552790;75;765;-68
2023/08/03 01:19:53;;;;;;;;;;;22.20;57.40;;;;;;1546200;75;794;-67
2023/08/03 01:21:55;;;;;;;;;;;22.30;57.50;;;;;;1544370;75;784;-66
2023/08/03 01:23:57;;;;;;;;;;;22.30;57.40;;;;;;1557980;75;1144;-64
2023/08/03 01:25:59;;;;;;;;;;;22.30;57.40;;;;;;1550230;75;1967;-65
2023/08/03 01:28:03;;;;;;;;;;;22.30;57.40;;;;;;1579756;73;737;-67
2023/08/03 01:30:05;;;;;;;;;;;22.30;57.40;;;;;;1547476;76;698;-65
2023/08/03 01:32:07;;;;;;;;;;;22.30;57.30;;;;;;1565077;75;792;-67
2023/08/03 01:34:12;;;;;;;;;;;22.20;57.20;;;;;;1551728;74;1102;-67
2023/08/03 01:36:12;;;;;;;;;;;22.30;57.30;;;;;;1550594;75;1618;-67
2023/08/03 01:38:14;;;;;;;;;;;22.20;57.20;;;;;;1547056;75;816;-67
2023/08/03 01:40:16;;;;;;;;;;;22.20;57.30;;;;;;1548092;75;1472;-67
2023/08/03 01:42:18;;;;;;;;;;;22.20;57.30;;;;;;1554920;75;803;-67
2023/08/03 01:44:24;;;;;;;;;;;22.20;57.30;;;;;;1564898;74;1945;-67
2023/08/03 01:46:26;;;;;;;;;;;22.20;57.20;;;;;;1554858;75;760;-67
2023/08/03 01:48:27;;;;;;;;;;;22.20;57.20;;;;;;1547416;75;766;-66
2023/08/03 01:50:29;;;;;;;;;;;22.20;57.30;;;;;;1553366;75;847;-66
2023/08/03 01:52:31;;;;;;;;;;;22.10;57.20;;;;;;1562223;75;719;-67
2023/08/03 01:54:33;;;;;;;;;;;22.20;57.20;;;;;;1571628;75;1529;-66
2023/08/03 01:56:35;;;;;;;;;;;22.10;57.20;;;;;;1558021;75;797;-67
2023/08/03 01:58:37;;;;;;;;;;;22.20;57.30;;;;;;1549141;75;649;-67
2023/08/03 02:00:39;;;;;;;;;;;22.20;57.20;;;;;;1557385;74;631;-67
2023/08/03 02:02:40;;;;;;;;;;;22.20;57.20;;;;;;1534416;75;737;-67
2023/08/03 02:04:42;;;;;;;;;;;22.10;57.10;;;;;;1552243;74;1945;-67
2023/08/03 02:06:49;;;;;;;;;;;22.20;57.10;;;;;;1552138;75;780;-67
2023/08/03 02:08:50;;;;;;;;;;;22.10;57.10;;;;;;1549737;75;1552;-67
2023/08/03 02:10:52;;;;;;;;;;;22.20;57.00;;;;;;1594096;73;803;-67
2023/08/03 02:12:54;;;;;;;;;;;22.10;57.00;;;;;;1547065;75;920;-66
2023/08/03 02:14:56;;;;;;;;;;;22.10;56.80;;;;;;1549591;75;1144;-67
2023/08/03 02:16:58;;;;;;;;;;;22.00;56.90;;;;;;1580436;73;765;-67
2023/08/03 02:19:00;;;;;;;;;;;22.10;56.90;;;;;;1550830;75;775;-67
2023/08/03 02:21:02;;;;;;;;;;;22.10;57.00;;;;;;1562470;75;765;-67
2023/08/03 02:23:04;;;;;;;;;;;22.10;57.00;;;;;;1541886;75;1416;-65
2023/08/03 02:25:06;;;;;;;;;;;22.10;56.90;;;;;;1553974;75;1921;-65
2023/08/03 02:27:08;;;;;;;;;;;22.10;56.90;;;;;;1567733;75;718;-67
2023/08/03 02:29:09;;;;;;;;;;;22.10;56.90;;;;;;1565741;75;756;-66
2023/08/03 02:31:11;;;;;;;;;;;22.10;56.90;;;;;;1564047;75;756;-67
2023/08/03 02:33:13;;;;;;;;;;;22.10;56.90;;;;;;1562586;75;763;-67
2023/08/03 02:35:15;;;;;;;;;;;22.10;56.80;;;;;;1549655;75;1149;-67
2023/08/03 02:37:17;;;;;;;;;;;22.00;56.70;;;;;;1552779;75;1323;-66
2023/08/03 02:39:19;;;;;;;;;;;22.10;56.80;;;;;;1547718;75;764;-66
2023/08/03 02:41:21;;;;;;;;;;;22.10;56.70;;;;;;1566762;75;789;-66
2023/08/03 02:43:23;;;;;;;;;;;22.10;56.70;;;;;;1552792;75;804;-65
2023/08/03 02:45:25;;;;;;;;;;;22.00;56.40;;;;;;1554494;75;1934;-67
2023/08/03 02:47:27;;;;;;;;;;;22.00;56.40;;;;;;1538114;75;715;-67
2023/08/03 02:49:29;;;;;;;;;;;22.00;56.30;;;;;;1560578;75;834;-66
2023/08/03 02:51:31;;;;;;;;;;;21.90;56.20;;;;;;1549118;75;1529;-67
2023/08/03 02:53:33;;;;;;;;;;;21.90;56.40;;;;;;1550709;75;657;-68
2023/08/03 02:55:34;;;;;;;;;;;21.90;56.50;;;;;;1562089;75;1129;-67
2023/08/03 02:57:36;;;;;;;;;;;21.90;56.30;;;;;;1562132;75;844;-67
2023/08/03 02:59:38;;;;;;;;;;;21.90;56.30;;;;;;1549762;75;727;-67
2023/08/03 03:01:40;;;;;;;;;;;22.00;56.20;;;;;;1550844;75;814;-67
2023/08/03 03:03:42;;;;;;;;;;;22.00;56.00;;;;;;1549839;75;730;-66
2023/08/03 03:05:44;;;;;;;;;;;22.00;56.00;;;;;;1553237;75;1950;-67
2023/08/03 03:07:46;;;;;;;;;;;22.00;56.00;;;;;;1562691;75;719;-66
2023/08/03 03:09:48;;;;;;;;;;;21.90;56.00;;;;;;1567784;75;907;-67
2023/08/03 03:11:52;;;;;;;;;;;21.90;56.00;;;;;;1548681;75;793;-68
2023/08/03 03:13:53;;;;;;;;;;;21.90;56.00;;;;;;1550376;75;1486;-67
2023/08/03 03:15:55;;;;;;;;;;;21.90;55.90;;;;;;1555710;75;1174;-66
2023/08/03 03:17:57;;;;;;;;;;;22.00;56.00;;;;;;1547814;75;706;-67
2023/08/03 03:19:59;;;;;;;;;;;22.00;55.90;;;;;;1556122;75;1578;-67
2023/08/03 03:22:00;;;;;;;;;;;22.00;55.90;;;;;;1566389;75;726;-67
2023/08/03 03:24:02;;;;;;;;;;;22.00;55.80;;;;;;1540538;75;1198;-67
2023/08/03 03:26:04;;;;;;;;;;;22.00;55.90;;;;;;1555879;75;1941;-66
2023/08/03 03:28:06;;;;;;;;;;;21.90;55.70;;;;;;1549917;75;718;-67
2023/08/03 03:30:08;;;;;;;;;;;22.00;55.70;;;;;;1546721;75;839;-67
2023/08/03 03:32:10;;;;;;;;;;;22.00;55.70;;;;;;1551698;75;746;-67
2023/08/03 03:34:12;;;;;;;;;;;21.90;55.60;;;;;;1554350;75;1530;-66
2023/08/03 03:36:14;;;;;;;;;;;22.00;55.60;;;;;;1552886;75;767;-68
2023/08/03 03:38:16;;;;;;;;;;;22.00;55.60;;;;;;1558045;75;744;-67
2023/08/03 03:40:18;;;;;;;;;;;22.00;55.50;;;;;;1555251;75;778;-67
2023/08/03 03:42:19;;;;;;;;;;;21.90;55.50;;;;;;1552106;75;973;-67
2023/08/03 03:44:21;;;;;;;;;;;21.90;55.50;;;;;;1545683;75;1123;-67
2023/08/03 03:46:23;;;;;;;;;;;21.90;55.50;;;;;;1553035;75;1952;-66
2023/08/03 03:48:25;;;;;;;;;;;22.00;55.40;;;;;;1553976;75;1676;-65
2023/08/03 03:50:28;;;;;;;;;;;22.00;55.40;;;;;;1553475;75;664;-67
2023/08/03 03:52:30;;;;;;;;;;;21.90;55.20;;;;;;1557664;75;811;-67
2023/08/03 03:54:31;;;;;;;;;;;21.90;55.40;;;;;;1549542;75;1178;-67
2023/08/03 03:56:33;;;;;;;;;;;22.00;55.40;;;;;;1552142;75;738;-67
2023/08/03 03:58:35;;;;;;;;;;;22.00;55.40;;;;;;1550113;75;726;-67
2023/08/03 04:00:40;;;;;;;;;;;21.90;55.20;;;;;;1551032;75;1586;-64
2023/08/03 04:02:42;;;;;;;;;;;22.00;54.90;;;;;;1583904;73;742;-65
2023/08/03 04:04:44;;;;;;;;;;;21.90;54.80;;;;;;1556620;74;1184;-66
2023/08/03 04:06:46;;;;;;;;;;;21.90;54.90;;;;;;1555648;74;1948;-67
2023/08/03 04:08:48;;;;;;;;;;;22.00;54.40;;;;;;1560474;74;814;-66
2023/08/03 04:10:50;;;;;;;;;;;21.90;54.50;;;;;;1566570;74;868;-66
2023/08/03 04:12:51;;;;;;;;;;;21.90;54.20;;;;;;1562616;74;792;-66
2023/08/03 04:14:53;;;;;;;;;;;21.90;54.30;;;;;;1559502;74;1570;-66
2023/08/03 04:16:55;;;;;;;;;;;21.90;53.60;;;;;;1563405;74;692;-65
2023/08/03 04:18:57;;;;;;;;;;;21.90;53.90;;;;;;1551123;74;762;-66
2023/08/03 04:20:59;;;;;;;;;;;21.90;53.40;;;;;;1569004;74;754;-65
2023/08/03 04:23:01;;;;;;;;;;;21.90;52.80;;;;;;1562929;74;767;-65
2023/08/03 04:25:03;;;;;;;;;;;21.90;52.70;;;;;;1565421;74;1129;-65
2023/08/03 04:27:05;;;;;;;;;;;21.90;53.10;;;;;;1553256;74;1928;-65
2023/08/03 04:29:07;;;;;;;;;;;21.90;52.40;;;;;;1564723;74;1550;-64
2023/08/03 04:31:09;;;;;;;;;;;21.90;52.70;;;;;;1561494;74;810;-64
2023/08/03 04:33:11;;;;;;;;;;;21.90;52.30;;;;;;1573795;74;701;-66
2023/08/03 04:35:14;;;;;;;;;;;21.90;52.20;;;;;;1566357;74;1102;-65
2023/08/03 04:37:16;;;;;;;;;;;21.90;52.30;;;;;;1553384;74;774;-65
2023/08/03 04:39:18;;;;;;;;;;;21.80;52.10;;;;;;1560629;74;776;-66
2023/08/03 04:41:20;;;;;;;;;;;21.90;52.30;;;;;;1555749;74;732;-66
2023/08/03 04:43:22;;;;;;;;;;;21.90;52.50;;;;;;1556091;74;1474;-66
2023/08/03 04:45:24;;;;;;;;;;;21.90;52.60;;;;;;1559080;74;1921;-66
2023/08/03 04:47:26;;;;;;;;;;;21.90;52.00;;;;;;1551088;74;783;-63
2023/08/03 04:49:28;;;;;;;;;;;21.90;51.30;;;;;;1557329;74;790;-66
2023/08/03 04:51:30;;;;;;;;;;;21.90;51.90;;;;;;1557448;74;681;-66
2023/08/03 04:53:31;;;;;;;;;;;21.90;51.80;;;;;;1575483;74;812;-67
2023/08/03 04:55:33;;;;;;;;;;;21.90;51.80;;;;;;1553998;74;1140;-65
2023/08/03 04:57:35;;;;;;;;;;;21.90;51.90;;;;;;1563227;74;1490;-66
2023/08/03 04:59:37;;;;;;;;;;;21.90;51.70;;;;;;1589652;73;776;-66
2023/08/03 05:01:39;;;;;;;;;;;21.90;51.60;;;;;;1561501;75;714;-65
2023/08/03 05:03:41;;;;;;;;;;;21.90;51.80;;;;;;1575722;74;777;-66
2023/08/03 05:05:43;;;;;;;;;;;21.90;51.70;;;;;;1534873;76;1943;-66
2023/08/03 05:07:44;;;;;;;;;;;21.80;51.30;;;;;;1562871;74;736;-65
2023/08/03 05:09:46;;;;;;;;;;;21.90;51.60;;;;;;1550715;74;688;-66
2023/08/03 05:11:48;;;;;;;;;;;21.90;51.50;;;;;;1562963;75;1548;-66
2023/08/03 05:13:50;;;;;;;;;;;21.90;51.70;;;;;;1557016;75;794;-66
2023/08/03 05:15:52;;;;;;;;;;;21.90;51.40;;;;;;1557444;75;1181;-66
2023/08/03 05:17:54;;;;;;;;;;;21.90;51.30;;;;;;1553678;75;767;-66
2023/08/03 05:19:56;;;;;;;;;;;21.90;50.80;;;;;;1565555;74;774;-66
2023/08/03 05:21:58;;;;;;;;;;;21.90;50.90;;;;;;1572778;74;719;-63
2023/08/03 05:24:00;;;;;;;;;;;22.10;50.40;;;;;;1578957;74;1142;-66
2023/08/03 05:26:02;;;;;;;;;;;22.10;49.80;;;;;;1568000;74;1969;-65
2023/08/03 05:28:04;;;;;;;;;;;22.20;49.80;;;;;;1570347;74;789;-64
2023/08/03 05:30:06;;;;;;;;;;;22.30;49.20;;;;;;1561354;74;793;-64
2023/08/03 05:32:08;;;;;;;;;;;22.30;49.30;;;;;;1578903;74;802;-66
2023/08/03 05:34:10;;;;;;;;;;;22.30;49.90;;;;;;1566996;74;1078;-64
2023/08/03 05:36:12;;;;;;;;;;;22.40;49.40;;;;;;1581501;74;713;-66
2023/08/03 05:38:14;;;;;;;;;;;22.40;48.80;;;;;;1567344;74;784;-66
2023/08/03 05:40:16;;;;;;;;;;;22.50;48.60;;;;;;1568245;74;1471;-65
2023/08/03 05:42:18;;;;;;;;;;;22.50;48.10;;;;;;1577203;74;756;-66
2023/08/03 05:44:20;;;;;;;;;;;22.50;48.10;;;;;;1587227;73;1155;-66
2023/08/03 05:46:22;;;;;;;;;;;22.60;47.80;;;;;;1552294;75;1932;-66
2023/08/03 05:48:24;;;;;;;;;;;22.70;47.50;;;;;;1562945;75;657;-67
2023/08/03 05:50:26;;;;;;;;;;;22.70;47.10;;;;;;1588288;73;734;-66
2023/08/03 05:52:28;;;;;;;;;;;22.80;46.80;;;;;;1590242;73;792;-66
2023/08/03 05:54:29;;;;;;;;;;;22.80;46.60;;;;;;1583400;73;1513;-66
2023/08/03 05:56:32;;;;;;;;;;;22.90;46.40;;;;;;1584333;73;787;-66
2023/08/03 05:58:34;;;;;;;;;;;22.90;46.00;;;;;;1579840;73;764;-66
2023/08/03 06:00:36;;;;;;;;;;;23.00;46.00;;;;;;1554740;75;719;-66
2023/08/03 06:02:38;;;;;;;;;;;23.00;45.70;;;;;;1572709;73;798;-65
2023/08/03 06:04:40;;;;;;;;;;;23.00;45.60;;;;;;1571385;73;1096;-66
2023/08/03 06:06:42;;;;;;;;;;;23.10;45.70;;;;;;1573704;73;1918;-64
2023/08/03 06:08:45;;;;;;;;;;;23.00;45.40;;;;;;1584359;73;1416;-63
2023/08/03 06:10:55;;;;;;;;;;;23.10;45.20;;;;;;1584056;73;1720;-66
2023/08/03 06:12:57;;;;;;;;;;;23.10;45.10;;;;;;1586956;73;996;-65
2023/08/03 06:14:59;;;;;;;;;;;23.10;45.10;;;;;;1590758;73;1176;-66
2023/08/03 06:17:00;;;;;;;;;;;23.00;44.70;;;;;;1583437;73;802;-66
2023/08/03 06:19:02;;;;;;;;;;;23.10;44.40;;;;;;1576830;73;798;-66
2023/08/03 06:21:04;;;;;;;;;;;23.10;44.50;;;;;;1582327;73;714;-66
2023/08/03 06:23:06;;;;;;;;;;;23.20;44.40;;;;;;1572649;73;1598;-65
2023/08/03 06:25:09;;;;;;;;;;;23.00;44.00;;;;;;1581060;73;1186;-66
2023/08/03 06:27:12;;;;;;;;;;;23.10;43.90;;;;;;1572326;73;1910;-65
2023/08/03 06:29:14;;;;;;;;;;;23.10;43.60;;;;;;1586369;73;650;-66
2023/08/03 06:31:18;;;;;;;;;;;23.10;43.60;;;;;;1586329;73;778;-66
2023/08/03 06:33:23;;;;;;;;;;;23.10;43.60;;;;;;1580026;73;725;-66
2023/08/03 06:35:26;;;;;;;;;;;23.10;43.50;;;;;;1574520;73;1588;-66
2023/08/03 06:37:28;;;;;;;;;;;23.10;43.60;;;;;;1591945;73;754;-66
2023/08/03 06:39:30;;;;;;;;;;;23.10;43.20;;;;;;1589908;73;598;-66
2023/08/03 06:41:32;;;;;;;;;;;23.10;43.30;;;;;;1581976;73;693;-66
2023/08/03 06:43:34;;;;;;;;;;;23.10;43.00;;;;;;1578486;73;749;-66
2023/08/03 06:45:36;;;;;;;;;;;23.10;43.10;;;;;;1576736;73;1113;-67
2023/08/03 06:47:38;;;;;;;;;;;23.00;43.20;;;;;;1562919;73;1924;-64
2023/08/03 06:49:39;;;;;;;;;;;23.00;42.70;;;;;;1586021;73;1421;-65
2023/08/03 06:51:41;;;;;;;;;;;23.00;43.10;;;;;;1551007;75;727;-66
2023/08/03 06:53:43;;;;;;;;;;;23.00;43.10;;;;;;1558193;74;815;-64
2023/08/03 06:55:48;;;;;;;;;;;22.90;43.30;;;;;;1555152;75;1177;-65
2023/08/03 06:57:49;;;;;;;;;;;23.00;43.00;;;;;;1554432;75;1663;-66
2023/08/03 06:59:51;;;;;;;;;;;22.90;42.90;;;;;;1541208;74;732;-66
2023/08/03 07:01:52;;;;;;;;;;;22.90;43.30;;;;;;1552533;75;709;-66
2023/08/03 07:03:54;;;;;;;;;;;22.90;43.00;;;;;;1559139;74;1436;-66
2023/08/03 07:05:57;;;;;;;;;;;22.80;42.70;;;;;;1599933;73;1085;-66
2023/08/03 07:07:59;;;;;;;;;;;22.80;42.80;;;;;;1554141;75;1931;-67
2023/08/03 07:10:01;;;;;;;;;;;22.80;42.50;;;;;;1549715;75;757;-66
2023/08/03 07:12:03;;;;;;;;;;;22.80;42.60;;;;;;1551245;75;879;-67
2023/08/03 07:14:04;;;;;;;;;;;22.70;42.80;;;;;;1533672;75;1186;-66
2023/08/03 07:16:08;;;;;;;;;;;22.80;42.70;;;;;;1563539;74;780;-65
2023/08/03 07:18:10;;;;;;;;;;;22.80;43.10;;;;;;1558458;74;1520;-67
2023/08/03 07:20:12;;;;;;;;;;;22.70;43.30;;;;;;1570041;74;791;-67
2023/08/03 07:22:14;;;;;;;;;;;22.70;43.20;;;;;;1563502;74;790;-66
2023/08/03 07:24:16;;;;;;;;;;;22.70;43.10;;;;;;1557092;74;1209;-66
2023/08/03 07:26:18;;;;;;;;;;;22.70;42.60;;;;;;1565990;74;1926;-66
2023/08/03 07:28:20;;;;;;;;;;;22.70;43.00;;;;;;1544133;74;770;-63
2023/08/03 07:30:21;;;;;;;;;;;22.70;43.20;;;;;;1555221;74;670;-66
2023/08/03 07:32:23;;;;;;;;;;;22.70;43.20;;;;;;1561324;74;1591;-67
2023/08/03 07:34:25;;;;;;;;;;;22.70;43.10;;;;;;1573704;74;1108;-66
2023/08/03 07:36:27;;;;;;;;;;;22.70;42.80;;;;;;1565516;74;1059;-66
2023/08/03 07:38:29;;;;;;;;;;;22.60;42.40;;;;;;1555594;74;783;-65
2023/08/03 07:40:31;;;;;;;;;;;22.70;42.40;;;;;;1559755;74;712;-67
2023/08/03 07:42:33;;;;;;;;;;;22.70;42.50;;;;;;1575428;74;791;-66
2023/08/03 07:44:35;;;;;;;;;;;22.70;42.80;;;;;;1550298;75;1162;-66
2023/08/03 07:46:36;;;;;;;;;;;22.70;42.60;;;;;;1560099;74;1938;-67
2023/08/03 07:48:38;;;;;;;;;;;22.60;42.60;;;;;;1566737;74;678;-66
2023/08/03 07:50:40;;;;;;;;;;;22.60;42.30;;;;;;1564034;74;794;-67
2023/08/03 07:52:42;;;;;;;;;;;22.60;42.50;;;;;;1552250;75;823;-66
2023/08/03 07:54:44;;;;;;;;;;;22.60;42.10;;;;;;1553618;75;1148;-66
2023/08/03 07:56:46;;;;;;;;;;;22.60;42.30;;;;;;1550210;74;777;-66
2023/08/03 07:58:48;;;;;;;;;;;22.60;42.60;;;;;;1555151;74;691;-66
2023/08/03 08:00:50;;;;;;;;;;;22.60;42.40;;;;;;1567317;74;1576;-67
2023/08/03 08:02:52;;;;;;;;;;;22.70;42.80;;;;;;1560516;74;737;-67
2023/08/03 08:04:54;;;;;;;;;;;22.60;43.10;;;;;;1555571;74;1158;-66
2023/08/03 08:06:55;;;;;;;;;;;22.60;42.60;;;;;;1567701;74;1957;-66
2023/08/03 08:08:57;;;;;;;;;;;22.60;42.60;;;;;;1564048;74;792;-67
2023/08/03 08:10:59;;;;;;;;;;;22.60;42.80;;;;;;1555148;74;823;-67
2023/08/03 08:13:01;;;;;;;;;;;22.60;42.60;;;;;;1555982;74;792;-67
2023/08/03 08:15:04;;;;;;;;;;;22.60;42.80;;;;;;1570004;74;1430;-65
2023/08/03 08:17:06;;;;;;;;;;;22.60;42.60;;;;;;1562718;74;797;-65
2023/08/03 08:19:08;;;;;;;;;;;22.60;42.70;;;;;;1561624;74;747;-67
2023/08/03 08:21:11;;;;;;;;;;;22.60;43.00;;;;;;1569692;74;752;-67
2023/08/03 08:23:13;;;;;;;;;;;22.60;42.70;;;;;;1562385;74;663;-67
2023/08/03 08:25:15;;;;;;;;;;;22.60;42.70;;;;;;1561296;74;1184;-67
2023/08/03 08:27:17;;;;;;;;;;;22.60;42.50;;;;;;1556399;74;1946;-66
2023/08/03 08:29:19;;;;;;;;;;;22.60;42.80;;;;;;1563961;74;1527;-67
2023/08/03 08:31:21;;;;;;;;;;;22.60;42.30;;;;;;1569497;74;756;-66
2023/08/03 08:33:22;;;;;;;;;;;22.60;42.30;;;;;;1548872;74;605;-67
2023/08/03 08:35:24;;;;;;;;;;;22.50;42.40;;;;;;1566055;74;1237;-67
2023/08/03 08:37:29;;;;;;;;;;;22.50;42.50;;;;;;1562336;74;758;-67
2023/08/03 08:39:30;;;;;;;;;;;22.50;42.80;;;;;;1563835;74;1614;-66
2023/08/03 08:41:32;;;;;;;;;;;22.60;42.80;;;;;;1556723;74;739;-66
2023/08/03 08:43:33;;;;;;;;;;;22.50;42.80;;;;;;1554698;74;1544;-66
2023/08/03 08:45:36;;;;;;;;;;;22.50;42.90;;;;;;1571252;74;1102;-66
2023/08/03 08:47:38;;;;;;;;;;;22.50;42.60;;;;;;1563858;74;1920;-66
2023/08/03 08:49:39;;;;;;;;;;;22.50;42.40;;;;;;1557125;74;670;-66
2023/08/03 08:51:42;;;;;;;;;;;22.50;42.70;;;;;;1564694;74;732;-67
2023/08/03 08:53:44;;;;;;;;;;;22.60;42.40;;;;;;1554044;74;737;-67
2023/08/03 08:55:46;;;;;;;;;;;22.50;42.60;;;;;;1551959;74;1122;-66
2023/08/03 08:57:48;;;;;;;;;;;22.50;43.10;;;;;;1578168;74;1663;-67
2023/08/03 09:00:01;;;;;;;;;;;22.60;42.80;;;;;;1573522;74;765;-66
2023/08/03 09:02:04;;;;;;;;;;;22.50;42.40;;;;;;1552319;74;1236;-65
2023/08/03 09:04:06;;;;;;;;;;;22.50;42.50;;;;;;1555570;74;1260;-64
2023/08/03 09:06:08;;;;;;;;;;;22.50;42.30;;;;;;1544878;74;933;-65
2023/08/03 09:08:14;;;;;;;;;;;22.50;42.30;;;;;;1570549;74;1909;-63
2023/08/03 09:10:15;;;;;;;;;;;22.50;42.30;;;;;;1553501;74;1456;-64
2023/08/03 09:12:25;;;;;;;;;;;22.50;42.20;;;;;;1557935;74;719;-66
2023/08/03 09:14:27;;;;;;;;;;;22.50;42.50;;;;;;1548663;74;1143;-64
2023/08/03 09:16:29;;;;;;;;;;;22.50;42.50;;;;;;1565040;74;762;-66
2023/08/03 09:18:31;;;;;;;;;;;22.60;42.60;;;;;;1551327;74;724;-65
2023/08/03 09:20:34;;;;;;;;;;;22.50;42.70;;;;;;1556803;74;802;-66
2023/08/03 09:22:37;;;;;;;;;;;22.50;42.60;;;;;;1577726;74;755;-66
2023/08/03 09:24:39;;;;;;;;;;;22.50;42.50;;;;;;1561891;74;1656;-66
2023/08/03 09:26:41;;;;;;;;;;;22.60;42.80;;;;;;1554072;74;860;-66
2023/08/03 09:28:43;;;;;;;;;;;22.50;42.30;;;;;;1565902;74;1954;-67
2023/08/03 09:30:53;;;;;;;;;;;22.50;42.60;;;;;;1565650;74;726;-66
2023/08/03 09:32:53;;;;;;;;;;;22.60;42.10;;;;;;1579183;74;974;-66
2023/08/03 09:34:56;;;;;;;;;;;22.60;42.10;;;;;;1547705;74;1166;-66
2023/08/03 09:36:57;;;;;;;;;;;22.50;41.70;;;;;;1563037;74;765;-66
2023/08/03 09:39:12;;;;;;;;;;;22.50;41.80;;;;;;1561950;74;1275;-66
2023/08/03 09:41:14;;;;;;;;;;;22.50;41.70;;;;;;1569642;74;743;-66
2023/08/03 09:43:16;;;;;;;;;;;22.50;41.90;;;;;;1565192;74;624;-66
2023/08/03 09:45:18;;;;;;;;;;;22.50;41.50;;;;;;1553943;74;1119;-65
2023/08/03 09:47:19;;;;;;;;;;;22.50;41.40;;;;;;1562293;74;1930;-65
2023/08/03 09:49:21;;;;;;;;;;;22.50;41.30;;;;;;1559465;74;790;-65
2023/08/03 09:51:25;;;;;;;;;;;22.50;41.50;;;;;;1565277;74;792;-66
2023/08/03 09:53:28;;;;;;;;;;;22.50;41.30;;;;;;1561759;74;1560;-67
2023/08/03 09:55:32;;;;;;;;;;;22.50;41.40;;;;;;1542219;74;1146;-66
2023/08/03 09:57:35;;;;;;;;;;;22.50;41.30;;;;;;1561615;74;726;-66
2023/08/03 09:59:37;;;;;;;;;;;22.50;41.50;;;;;;1559279;74;801;-66
2023/08/03 10:01:39;;;;;;;;;;;22.50;41.80;;;;;;1565433;74;603;-65
2023/08/03 10:03:42;;;;;;;;;;;22.50;42.00;;;;;;1562931;74;740;-66
2023/08/03 10:05:45;;;;;;;;;;;22.50;41.80;;;;;;1566572;74;1131;-65
2023/08/03 10:07:49;;;;;;;;;;;22.50;42.30;;;;;;1568803;74;1925;-65
2023/08/03 10:09:51;;;;;;;;;;;22.50;42.10;;;;;;1566580;74;1424;-66
2023/08/03 10:11:53;;;;;;;;;;;22.50;42.00;;;;;;1562189;74;708;-66
2023/08/03 10:13:55;;;;;;;;;;;22.50;41.90;;;;;;1565303;74;694;-66
2023/08/03 10:15:57;;;;;;;;;;;22.50;41.80;;;;;;1558863;74;1112;-66
2023/08/03 10:17:59;;;;;;;;;;;22.50;41.80;;;;;;1562813;74;717;-66
2023/08/03 10:20:01;;;;;;;;;;;22.50;41.90;;;;;;1564351;74;828;-65
2023/08/03 10:22:03;;;;;;;;;;;22.50;41.90;;;;;;1567153;74;1601;-66
2023/08/03 10:24:08;;;;;;;;;;;22.50;42.00;;;;;;1560257;74;1186;-65
2023/08/03 10:26:10;;;;;;;;;;;22.40;41.80;;;;;;1570314;74;846;-66
2023/08/03 10:28:17;;;;;;;;;;;22.40;41.90;;;;;;1544570;75;1989;-66
2023/08/03 10:30:16;;;;;;;;;;;22.50;42.30;;;;;;1563106;74;1404;-65
2023/08/03 10:32:19;;;;;;;;;;;22.50;42.30;;;;;;1574625;74;762;-66
2023/08/03 10:34:24;;;;;;;;;;;22.50;41.90;;;;;;1553626;74;1509;-66
2023/08/03 10:36:30;;;;;;;;;;;22.50;41.80;;;;;;1570055;74;794;-66
2023/08/03 10:38:32;;;;;;;;;;;22.50;41.80;;;;;;1553553;74;789;-64
2023/08/03 10:40:34;;;;;;;;;;;22.50;41.70;;;;;;1534873;76;767;-66
2023/08/03 10:42:36;;;;;;;;;;;22.40;41.60;;;;;;1557995;74;775;-67
2023/08/03 10:44:38;;;;;;;;;;;22.40;41.60;;;;;;1554325;74;1152;-65
2023/08/03 10:46:40;;;;;;;;;;;22.40;41.80;;;;;;1592622;73;776;-64
2023/08/03 10:48:42;;;;;;;;;;;22.40;41.80;;;;;;1555410;74;1911;-66
2023/08/03 10:51:00;;;;;;;;;;;22.50;41.60;;;;;;1565528;74;786;-66
2023/08/03 10:53:02;;;;;;;;;;;22.50;41.60;;;;;;1568090;74;661;-63
2023/08/03 10:55:20;;;;;;;;;;;22.50;41.80;;;;;;1573266;73;1123;-63
2023/08/03 10:57:24;;;;;;;;;;;22.50;42.10;;;;;;1559048;75;718;-66
2023/08/03 10:59:26;;;;;;;;;;;22.40;41.70;;;;;;1533890;75;868;-65
2023/08/03 11:01:28;;;;;;;;;;;22.40;41.30;;;;;;1552376;74;714;-65
2023/08/03 11:03:36;;;;;;;;;;;22.40;41.20;;;;;;1552128;74;1338;-66
2023/08/03 11:05:38;;;;;;;;;;;22.50;41.30;;;;;;1563556;74;1209;-64
2023/08/03 11:07:42;;;;;;;;;;;22.50;41.30;;;;;;1551979;74;1929;-65
2023/08/03 11:09:47;;;;;;;;;;;22.40;41.10;;;;;;1561074;74;1118;-66
2023/08/03 11:11:49;;;;;;;;;;;22.40;41.20;;;;;;1556715;74;1195;-66
2023/08/03 11:13:52;;;;;;;;;;;22.40;40.70;;;;;;1561987;74;830;-66
2023/08/03 11:15:54;;;;;;;;;;;22.40;40.60;;;;;;1552664;74;1174;-65
2023/08/03 11:17:56;;;;;;;;;;;22.40;40.70;;;;;;1566639;74;1608;-66
2023/08/03 11:20:00;;;;;;;;;;;22.40;40.80;;;;;;1552128;75;737;-66
2023/08/03 11:22:02;;;;;;;;;;;22.40;41.30;;;;;;1555126;74;735;-66
2023/08/03 11:24:05;;;;;;;;;;;22.50;41.80;;;;;;1563268;74;1207;-64
2023/08/03 11:26:08;;;;;;;;;;;22.50;41.80;;;;;;1572323;74;689;-66
2023/08/03 11:28:12;;;;;;;;;;;22.40;41.80;;;;;;1554078;74;1940;-66
2023/08/03 11:30:14;;;;;;;;;;;22.50;41.70;;;;;;1567209;74;1017;-66
2023/08/03 11:32:26;;;;;;;;;;;22.50;41.60;;;;;;1562923;74;1454;-65
2023/08/03 11:34:28;;;;;;;;;;;22.40;41.40;;;;;;1553759;74;1089;-65
2023/08/03 11:36:29;;;;;;;;;;;22.50;41.70;;;;;;1561375;74;756;-66
2023/08/03 11:38:31;;;;;;;;;;;22.50;41.90;;;;;;1565906;74;683;-64
2023/08/03 11:40:33;;;;;;;;;;;22.50;41.80;;;;;;1556260;74;794;-65
2023/08/03 11:42:36;;;;;;;;;;;22.50;41.90;;;;;;1562930;74;722;-66
2023/08/03 11:44:41;;;;;;;;;;;22.50;42.30;;;;;;1560202;74;1129;-65
2023/08/03 11:46:43;;;;;;;;;;;22.50;42.10;;;;;;1556222;74;883;-66
2023/08/03 11:48:46;;;;;;;;;;;22.40;41.90;;;;;;1564125;74;1943;-67
2023/08/03 11:50:47;;;;;;;;;;;22.50;42.40;;;;;;1557468;74;752;-66
2023/08/03 11:52:49;;;;;;;;;;;22.50;42.40;;;;;;1551503;74;675;-65
2023/08/03 11:54:51;;;;;;;;;;;22.50;42.70;;;;;;1559192;74;1108;-67
2023/08/03 11:56:53;;;;;;;;;;;22.50;43.10;;;;;;1554340;74;717;-66
2023/08/03 11:58:56;;;;;;;;;;;22.50;43.20;;;;;;1556445;74;1611;-67
2023/08/03 12:01:03;;;;;;;;;;;22.50;43.00;;;;;;1566954;74;730;-66
2023/08/03 12:03:04;;;;;;;;;;;22.50;43.00;;;;;;1548873;74;720;-66
2023/08/03 12:05:07;;;;;;;;;;;22.50;42.90;;;;;;1556375;74;1149;-67
2023/08/03 12:07:09;;;;;;;;;;;22.50;42.90;;;;;;1561472;74;736;-65
2023/08/03 12:09:10;;;;;;;;;;;22.50;43.30;;;;;;1560265;74;1923;-67